Huvudsida
METAR-TAF:

METAR-TAF

Flygplatser :

Svalbards flygplats. Longyear

Longyearbyen, Norge

latitud: 78-15N, longitud: 015-28E, höjd: 2 m

Aktuellt väderrapport

Denna rapport gjordes för 15 minuter sedan, klockan 14:20 UTC
Vind 7 kt från ost/sydost
Temperatur -11°C
Fuktighet 72%
Tryck 1014 hPa
Sikt 10 km eller mer
Få moln på en höjd av 2500 ft
Spridda moln på en höjd av 4500 ft

METAR: ENSB 161420Z 11007KT 9999 FEW025 SCT045 M11/M15 Q1014 NOSIG RMK WIND 1400FT 14008KT

Tid: 15:35 (14:35 UTC)

Väderprognos

Prognos gäller från 16 kl. 12 UTC till 17 kl. 12 UTC
Vind 12 kt från ost/sydost
Sikt 10 km eller mer
Få moln på en höjd av 2500 ft
Blir
från 17 kl. 00 UTC till 17 kl. 03 UTC
Vind 8 kt från sydväst
Temporärt
från 17 kl. 07 UTC till 17 kl. 12 UTC
Vind 20 kt från väst/sydväst

TAF: ENSB 1612/1712 12012KT 9999 FEW025 BECMG 1700/1703 22008KT TEMPO 1707/1712 24020KT

Aktuella väderrapporter och prognoser från 4000 flygplatser (METAR- och TAF-rapporter).

De tillgängliga stationerna syns som gula och röda prickar på kartan.

För musen över prickarna för att se namnen på stationerna.

Klicka sedan för att få väderrapporter och prognoser.

För att ändra kartan: Klicka på de gröna knapparna med ett svart kors på för att zooma in; den gröna knappen med ett streck på för att zooma ut; eller på de gröna pilarna för angränsande kartor.


METAR-TAF: